Time;durP1;ratioP1;P1;durP2;ratioP2;P2;SDS_P1;SDS_P2;PMS_P1;PMS_P2;Temp;Humidity;BMP_temperature;BMP_pressure;BME280_temperature;BME280_humidity;BME280_pressure;Samples;Min_cycle;Max_cycle;Signal;HPM_P1;HPM_P2
2023/03/21 00:00:46;;;;;;;69.53;26.35;;;10.80;99.90;;;;;;4883210;29;20045;-73
2023/03/21 00:03:13;;;;;;;81.85;25.92;;;10.80;99.90;;;;;;4882969;29;20045;-74
2023/03/21 00:05:40;;;;;;;85.95;27.83;;;10.70;99.90;;;;;;4883399;29;20099;-74
2023/03/21 00:08:06;;;;;;;97.53;28.38;;;10.90;99.90;;;;;;4883142;29;20132;-74
2023/03/21 00:10:32;;;;;;;116.00;29.58;;;10.90;99.90;;;;;;4882447;29;20116;-74
2023/03/21 00:12:57;;;;;;;98.28;27.88;;;10.90;99.90;;;;;;4881867;29;20093;-74
2023/03/21 00:15:28;;;;;;;108.13;28.05;;;11.00;99.90;;;;;;4882953;29;20049;-74
2023/03/21 00:18:03;;;;;;;76.90;26.00;;;10.90;99.90;;;;;;4882774;29;20124;-74
2023/03/21 00:20:36;;;;;;;82.93;25.50;;;10.80;99.90;;;;;;4882846;29;20048;-74
2023/03/21 00:23:03;;;;;;;95.45;26.88;;;10.70;99.90;;;;;;4883133;29;20372;-74
2023/03/21 00:25:30;;;;;;;78.35;25.90;;;10.80;99.90;;;;;;4882656;29;20126;-74
2023/03/21 00:27:56;;;;;;;91.60;25.98;;;10.70;99.90;;;;;;4882956;29;20060;-73
2023/03/21 00:30:22;;;;;;;49.13;21.98;;;10.70;99.90;;;;;;4882604;29;20037;-74
2023/03/21 00:32:48;;;;;;;79.47;25.58;;;10.70;99.90;;;;;;4882818;29;20049;-73
2023/03/21 00:35:14;;;;;;;76.95;24.85;;;10.80;99.90;;;;;;4882865;29;20037;-74
2023/03/21 00:37:40;;;;;;;89.97;25.80;;;10.80;99.90;;;;;;4882804;29;20045;-73
2023/03/21 00:40:09;;;;;;;94.13;27.00;;;10.80;99.90;;;;;;4882436;29;20041;-73
2023/03/21 00:42:35;;;;;;;123.38;30.67;;;10.70;99.90;;;;;;4882461;29;20068;-74
2023/03/21 00:45:03;;;;;;;111.70;27.25;;;10.70;99.90;;;;;;4882688;29;20053;-74
2023/03/21 00:47:28;;;;;;;85.65;25.77;;;10.60;99.90;;;;;;4882463;29;20507;-73
2023/03/21 00:49:54;;;;;;;158.05;32.00;;;10.60;99.90;;;;;;4882639;29;20128;-73
2023/03/21 00:52:21;;;;;;;111.93;29.58;;;10.70;99.90;;;;;;4882223;29;20041;-73
2023/03/21 00:54:47;;;;;;;175.65;33.83;;;10.50;99.90;;;;;;4882654;29;20108;-74
2023/03/21 00:57:12;;;;;;;208.00;35.10;;;10.60;99.90;;;;;;4882311;29;20482;-73
2023/03/21 00:59:38;;;;;;;178.98;34.28;;;10.60;99.90;;;;;;4882550;29;20147;-74
2023/03/21 01:02:06;;;;;;;231.43;37.10;;;10.40;99.90;;;;;;4882543;29;20479;-73
2023/03/21 01:04:33;;;;;;;252.43;36.85;;;10.50;99.90;;;;;;4882275;29;20052;-73
2023/03/21 01:06:59;;;;;;;254.27;37.83;;;10.60;99.90;;;;;;4882492;29;20049;-74
2023/03/21 01:09:25;;;;;;;285.10;38.17;;;10.50;99.90;;;;;;4882500;29;20053;-74
2023/03/21 01:11:52;;;;;;;176.35;33.72;;;10.50;99.90;;;;;;4882113;29;20045;-74
2023/03/21 01:14:20;;;;;;;207.07;35.28;;;10.60;99.90;;;;;;4882211;29;20040;-74
2023/03/21 01:16:46;;;;;;;265.75;37.85;;;10.60;99.90;;;;;;4882469;29;20060;-73
2023/03/21 01:19:15;;;;;;;182.52;33.30;;;10.60;99.90;;;;;;4882381;29;20041;-74
2023/03/21 01:21:42;;;;;;;191.52;35.42;;;10.60;99.90;;;;;;4882050;29;20474;-74
2023/03/21 01:24:07;;;;;;;238.05;36.78;;;10.50;99.90;;;;;;4883984;29;20424;-74
2023/03/21 01:26:33;;;;;;;248.65;38.17;;;10.60;99.90;;;;;;4885825;29;20048;-73
2023/03/21 01:28:59;;;;;;;275.83;38.05;;;10.60;99.90;;;;;;4869036;29;20149;-73
2023/03/21 01:31:25;;;;;;;158.10;32.53;;;10.50;99.90;;;;;;4885411;29;20049;-73
2023/03/21 01:33:50;;;;;;;177.95;33.85;;;10.40;99.90;;;;;;4885328;29;20127;-73
2023/03/21 01:36:20;;;;;;;182.85;35.15;;;10.30;99.90;;;;;;4885704;29;20120;-74
2023/03/21 01:38:46;;;;;;;184.32;33.28;;;10.40;99.90;;;;;;4885372;29;20451;-73
2023/03/21 01:41:38;;;;;;;156.20;31.27;;;10.40;99.90;;;;;;4885153;29;20037;-74
2023/03/21 01:44:04;;;;;;;156.20;32.20;;;10.50;99.90;;;;;;4885005;29;20324;-73
2023/03/21 01:46:51;;;;;;;157.15;33.03;;;10.50;99.90;;;;;;4885480;29;20056;-74
2023/03/21 01:49:16;;;;;;;180.95;33.78;;;10.60;99.90;;;;;;4885564;29;20167;-74
2023/03/21 01:51:48;;;;;;;151.93;31.45;;;10.60;99.90;;;;;;4885448;29;20048;-75
2023/03/21 01:54:23;;;;;;;184.80;32.80;;;10.70;99.90;;;;;;4885273;29;20049;-74
2023/03/21 01:56:51;;;;;;;154.88;33.35;;;10.70;99.90;;;;;;4868908;29;20064;-74
2023/03/21 01:59:28;;;;;;;164.45;34.50;;;10.60;99.90;;;;;;4884929;29;20440;-74
2023/03/21 02:01:55;;;;;;;;;;;10.50;99.90;;;;;;4885555;29;20607;-73
2023/03/21 02:04:26;;;;;;;151.63;32.05;;;10.60;99.90;;;;;;4899460;29;20345;-74
2023/03/21 02:07:10;;;;;;;145.05;33.38;;;10.60;99.90;;;;;;4885094;29;20368;-74
2023/03/21 02:09:39;;;;;;;137.38;31.83;;;10.60;99.90;;;;;;4885133;29;20346;-74
2023/03/21 02:12:07;;;;;;;129.52;33.45;;;10.60;99.90;;;;;;4884635;29;20040;-74
2023/03/21 02:14:36;;;;;;;131.95;33.13;;;10.60;99.90;;;;;;4884914;29;20124;-74
2023/03/21 02:17:32;;;;;;;123.97;31.30;;;10.70;99.90;;;;;;4884951;29;20048;-74
2023/03/21 02:20:53;;;;;;;153.18;35.15;;;10.60;99.90;;;;;;4885074;29;20080;-73
2023/03/21 02:23:40;;;;;;;132.07;33.08;;;10.60;99.90;;;;;;4884876;29;20132;-73
2023/03/21 02:26:26;;;;;;;114.20;32.25;;;10.80;99.90;;;;;;4868041;29;20128;-74
2023/03/21 02:28:55;;;;;;;129.07;33.33;;;10.70;99.90;;;;;;4884866;29;20096;-73
2023/03/21 02:31:41;;;;;;;122.75;34.50;;;10.70;99.90;;;;;;4884427;29;20129;-73
2023/03/21 02:34:13;;;;;;;148.55;35.55;;;10.60;99.90;;;;;;4884510;29;20117;-73
2023/03/21 02:37:16;;;;;;;154.27;36.70;;;10.60;99.90;;;;;;4883941;29;20051;-74
2023/03/21 02:39:54;;;;;;;190.77;38.20;;;10.70;99.90;;;;;;4884249;29;20080;-74
2023/03/21 02:42:26;;;;;;;161.23;37.50;;;10.60;99.90;;;;;;4884287;29;20197;-73
2023/03/21 02:44:58;;;;;;;120.22;36.30;;;10.70;99.90;;;;;;4884176;29;20045;-74
2023/03/21 02:47:48;;;;;;;122.70;35.65;;;10.70;99.90;;;;;;4884409;29;20343;-73
2023/03/21 02:50:32;;;;;;;123.18;35.78;;;10.60;99.90;;;;;;4884334;29;20049;-74
2023/03/21 02:53:01;;;;;;;124.28;36.10;;;10.60;99.90;;;;;;4884289;29;20079;-73
2023/03/21 02:55:29;;;;;;;108.80;36.40;;;10.60;99.90;;;;;;4884295;29;20339;-74
2023/03/21 02:57:57;;;;;;;123.57;34.70;;;10.60;99.90;;;;;;4884229;29;20067;-73
2023/03/21 03:00:27;;;;;;;148.90;39.85;;;10.60;99.90;;;;;;4883865;29;20045;-74
2023/03/21 03:02:54;;;;;;;122.20;36.22;;;10.60;99.90;;;;;;4884174;29;20148;-73
2023/03/21 03:05:28;;;;;;;103.53;33.75;;;10.70;99.90;;;;;;4884097;29;20098;-74
2023/03/21 03:08:09;;;;;;;108.53;34.83;;;10.60;99.90;;;;;;4884073;29;20041;-74
2023/03/21 03:10:43;;;;;;;108.20;31.48;;;10.60;99.90;;;;;;4883600;29;20056;-74
2023/03/21 03:13:50;;;;;;;121.85;33.65;;;10.70;99.90;;;;;;4883922;29;20135;-74
2023/03/21 03:16:43;;;;;;;100.30;32.50;;;10.70;99.90;;;;;;4884039;29;20113;-74
2023/03/21 03:19:20;;;;;;;93.85;29.88;;;10.80;99.90;;;;;;4883929;29;20056;-74
2023/03/21 03:21:53;;;;;;;111.20;33.30;;;10.80;99.90;;;;;;4883822;29;20072;-74
2023/03/21 03:24:32;;;;;;;118.68;32.63;;;10.90;99.90;;;;;;4883836;29;20049;-74
2023/03/21 03:27:11;;;;;;;78.82;29.42;;;10.90;99.90;;;;;;4883504;29;20045;-74
2023/03/21 03:29:40;;;;;;;81.03;29.50;;;10.90;99.90;;;;;;4883525;29;20343;-74
2023/03/21 03:32:14;;;;;;;89.10;29.55;;;11.10;99.90;;;;;;4883658;29;20096;-74
2023/03/21 03:34:48;;;;;;;88.15;29.77;;;11.20;99.90;;;;;;4883626;29;20124;-74
2023/03/21 03:37:19;;;;;;;70.68;28.35;;;11.30;99.90;;;;;;4883708;29;20041;-74
2023/03/21 03:39:52;;;;;;;73.00;27.15;;;11.40;99.90;;;;;;4883648;29;20096;-74
2023/03/21 03:42:23;;;;;;;72.07;28.17;;;11.40;99.90;;;;;;4863419;29;20136;-74
2023/03/21 03:44:49;;;;;;;111.07;31.58;;;11.30;99.90;;;;;;4864936;29;20042;-74
2023/03/21 03:47:56;;;;;;;99.80;29.27;;;11.30;99.90;;;;;;4864684;29;20046;-74
2023/03/21 03:50:31;;;;;;;53.58;24.42;;;11.40;99.90;;;;;;4861688;29;20109;-73
2023/03/21 03:53:06;;;;;;;80.80;27.20;;;11.40;99.90;;;;;;4864460;29;20046;-73
2023/03/21 03:55:33;;;;;;;107.65;28.73;;;11.40;99.90;;;;;;4864769;29;20042;-74
2023/03/21 03:58:00;;;;;;;96.70;27.33;;;11.40;99.90;;;;;;4864425;29;20048;-73
2023/03/21 04:00:30;;;;;;;71.53;25.50;;;11.40;99.90;;;;;;4864497;29;20432;-74
2023/03/21 04:02:58;;;;;;;76.07;25.45;;;11.30;99.90;;;;;;4864715;29;20038;-73
2023/03/21 04:05:25;;;;;;;79.68;25.33;;;11.30;99.90;;;;;;4864354;29;20508;-74
2023/03/21 04:07:51;;;;;;;61.65;21.80;;;11.30;99.90;;;;;;4864649;29;20049;-73
2023/03/21 04:10:17;;;;;;;45.63;20.52;;;11.30;99.90;;;;;;4864153;29;20056;-74
2023/03/21 04:12:43;;;;;;;72.50;23.08;;;11.40;99.90;;;;;;4864516;29;20042;-74
2023/03/21 04:15:10;;;;;;;51.58;21.13;;;11.40;99.90;;;;;;4864474;29;20041;-74
2023/03/21 04:17:37;;;;;;;47.38;19.58;;;11.40;99.90;;;;;;4864507;29;20104;-74
2023/03/21 04:20:05;;;;;;;46.70;19.75;;;11.50;99.90;;;;;;4864441;29;20049;-74
2023/03/21 04:22:32;;;;;;;87.47;25.17;;;11.50;99.90;;;;;;4864454;29;20358;-74
2023/03/21 04:24:58;;;;;;;48.78;19.92;;;11.60;99.90;;;;;;4864435;29;20047;-73
2023/03/21 04:27:23;;;;;;;57.80;21.02;;;11.40;99.90;;;;;;4864349;29;20045;-74
2023/03/21 04:29:49;;;;;;;54.63;20.17;;;11.50;99.90;;;;;;4864335;29;20073;-74
2023/03/21 04:32:16;;;;;;;72.70;22.23;;;11.40;99.90;;;;;;4864357;29;20381;-74
2023/03/21 04:34:48;;;;;;;52.85;20.33;;;11.40;99.90;;;;;;4864041;29;20064;-74
2023/03/21 04:37:16;;;;;;;44.92;19.55;;;11.50;99.90;;;;;;4864347;29;20373;-73
2023/03/21 04:39:42;;;;;;;70.35;21.90;;;11.50;99.90;;;;;;4864251;29;20037;-74
2023/03/21 04:42:07;;;;;;;53.00;20.48;;;11.50;99.90;;;;;;4866855;29;20065;-74
2023/03/21 04:44:33;;;;;;;62.05;20.88;;;11.60;99.90;;;;;;4885399;29;20044;-74
2023/03/21 04:46:59;;;;;;;51.03;20.60;;;11.70;99.90;;;;;;4900001;29;20040;-74
2023/03/21 04:49:25;;;;;;;64.28;21.25;;;11.60;99.90;;;;;;4901452;29;20441;-74
2023/03/21 04:51:50;;;;;;;55.83;19.90;;;11.60;99.90;;;;;;4901125;29;20426;-74
2023/03/21 04:54:16;;;;;;;40.45;19.48;;;11.60;99.90;;;;;;4901379;29;20048;-74
2023/03/21 04:56:43;;;;;;;50.65;21.05;;;11.60;99.90;;;;;;4901403;29;20036;-74
2023/03/21 04:59:12;;;;;;;79.70;22.08;;;11.40;99.90;;;;;;4903527;29;20048;-74
2023/03/21 05:01:40;;;;;;;59.20;20.08;;;11.40;99.90;;;;;;4904853;29;20077;-74
2023/03/21 05:04:06;;;;;;;57.45;20.88;;;11.30;99.90;;;;;;4905161;29;20122;-74
2023/03/21 05:06:32;;;;;;;65.38;21.30;;;11.20;99.90;;;;;;4905084;29;20363;-74
2023/03/21 05:09:04;;;;;;;85.88;23.67;;;11.30;99.90;;;;;;4904788;29;20055;-74
2023/03/21 05:11:31;;;;;;;39.33;19.15;;;11.40;99.90;;;;;;4904379;29;20050;-74
2023/03/21 05:13:58;;;;;;;73.80;21.75;;;11.40;99.90;;;;;;4904752;29;20048;-74
2023/03/21 05:16:25;;;;;;;61.38;21.08;;;11.50;99.90;;;;;;4904422;29;20555;-74
2023/03/21 05:18:55;;;;;;;48.30;21.98;;;11.50;99.90;;;;;;4887728;29;20040;-74
2023/03/21 05:21:22;;;;;;;39.47;20.45;;;11.60;99.90;;;;;;4904582;29;20084;-74
2023/03/21 05:23:54;;;;;;;37.42;19.20;;;11.60;99.90;;;;;;4887983;29;20055;-74
2023/03/21 05:26:23;;;;;;;43.35;20.15;;;11.60;99.90;;;;;;4904679;29;20044;-74
2023/03/21 05:28:50;;;;;;;50.92;20.10;;;11.50;99.90;;;;;;4904630;29;20044;-74
2023/03/21 05:31:19;;;;;;;36.47;18.05;;;11.60;99.90;;;;;;4904628;29;20045;-74
2023/03/21 05:33:47;;;;;;;34.53;17.88;;;11.60;99.90;;;;;;4904123;29;20108;-74
2023/03/21 05:36:14;;;;;;;33.78;18.10;;;11.60;99.90;;;;;;4904236;29;20335;-74
2023/03/21 05:38:44;;;;;;;58.63;20.27;;;11.60;99.90;;;;;;4904436;29;20072;-74
2023/03/21 05:41:14;;;;;;;53.03;19.25;;;11.60;99.90;;;;;;4887514;29;20045;-73
2023/03/21 05:43:40;;;;;;;29.90;16.00;;;11.60;99.90;;;;;;4903972;29;20064;-74
2023/03/21 05:46:07;;;;;;;34.35;16.00;;;11.60;99.90;;;;;;4887622;29;20423;-74
2023/03/21 05:48:33;;;;;;;43.15;19.05;;;11.40;99.90;;;;;;4903936;29;20041;-74
2023/03/21 05:51:00;;;;;;;26.45;15.73;;;11.30;99.90;;;;;;4903959;29;20462;-73
2023/03/21 05:53:25;;;;;;;34.72;16.38;;;11.30;99.90;;;;;;4904075;29;20087;-73
2023/03/21 05:55:51;;;;;;;36.40;16.77;;;11.30;99.90;;;;;;4904090;29;20517;-74
2023/03/21 05:58:17;;;;;;;43.10;17.75;;;11.20;99.90;;;;;;4904123;29;20048;-73
2023/03/21 06:00:43;;;;;;;31.70;16.20;;;11.30;99.90;;;;;;4904124;29;20036;-74
2023/03/21 06:03:09;;;;;;;32.10;15.98;;;11.30;99.90;;;;;;4903704;29;20399;-73
2023/03/21 06:05:34;;;;;;;28.95;15.82;;;11.30;99.90;;;;;;4903650;29;20045;-74
2023/03/21 06:08:00;;;;;;;34.78;16.95;;;11.30;99.90;;;;;;4903868;29;20113;-74
2023/03/21 06:10:26;;;;;;;31.92;16.75;;;11.30;99.90;;;;;;4903507;29;20347;-74
2023/03/21 06:12:51;;;;;;;32.60;17.20;;;11.20;99.90;;;;;;4903769;29;20144;-73
2023/03/21 06:15:17;;;;;;;39.47;16.60;;;11.20;99.90;;;;;;4903808;29;20045;-73
2023/03/21 06:17:43;;;;;;;27.98;17.23;;;11.20;99.90;;;;;;4903730;29;20041;-74
2023/03/21 06:20:10;;;;;;;32.15;16.92;;;11.30;99.90;;;;;;4903453;29;20124;-73
2023/03/21 06:22:38;;;;;;;39.45;18.75;;;11.30;99.90;;;;;;4903716;29;20040;-73
2023/03/21 06:25:06;;;;;;;37.75;18.65;;;11.30;99.90;;;;;;4903635;29;20051;-73
2023/03/21 06:27:33;;;;;;;36.78;18.77;;;11.40;99.90;;;;;;4903554;29;20041;-73
2023/03/21 06:29:59;;;;;;;34.58;18.58;;;11.30;99.90;;;;;;4903232;29;20510;-73
2023/03/21 06:32:25;;;;;;;26.48;17.23;;;11.30;99.90;;;;;;4903518;29;20124;-73
2023/03/21 06:34:51;;;;;;;51.95;20.02;;;11.20;99.90;;;;;;4903375;29;20391;-73
2023/03/21 06:37:17;;;;;;;35.13;18.15;;;11.20;99.90;;;;;;4903401;29;20116;-73
2023/03/21 06:39:43;;;;;;;29.67;18.30;;;11.30;99.90;;;;;;4903097;29;20486;-73
2023/03/21 06:42:10;;;;;;;38.17;18.92;;;11.30;99.90;;;;;;4902743;29;20060;-74
2023/03/21 06:44:36;;;;;;;28.15;17.73;;;11.40;99.90;;;;;;4903319;29;20119;-73
2023/03/21 06:47:01;;;;;;;27.02;16.48;;;11.50;99.90;;;;;;4886481;29;20396;-73
2023/03/21 06:49:27;;;;;;;37.63;19.20;;;11.50;99.90;;;;;;4903185;29;20093;-73
2023/03/21 06:51:53;;;;;;;38.65;20.23;;;11.60;99.90;;;;;;4903136;29;20430;-73
2023/03/21 06:54:19;;;;;;;37.83;19.60;;;11.40;99.90;;;;;;4903037;29;20339;-73
2023/03/21 06:56:45;;;;;;;38.83;20.08;;;11.50;99.90;;;;;;4896797;29;20053;-73
2023/03/21 06:59:11;;;;;;;30.90;18.42;;;11.60;99.90;;;;;;4874946;29;20339;-70
2023/03/21 07:01:37;;;;;;;27.65;18.17;;;11.60;99.90;;;;;;4872769;29;20044;-69
2023/03/21 07:04:03;;;;;;;28.20;18.48;;;11.50;99.90;;;;;;4866101;29;20041;-68
2023/03/21 07:06:29;;;;;;;27.67;17.90;;;11.60;99.90;;;;;;4871985;29;20058;-68
2023/03/21 07:08:56;;;;;;;31.85;18.30;;;11.70;99.90;;;;;;4876951;29;20041;-68
2023/03/21 07:11:22;;;;;;;29.92;18.40;;;11.70;99.90;;;;;;4872534;29;20116;-68
2023/03/21 07:13:49;;;;;;;31.60;18.77;;;11.80;99.90;;;;;;4863999;29;20045;-68
2023/03/21 07:16:15;;;;;;;27.77;18.08;;;11.90;99.90;;;;;;4873036;29;20033;-68
2023/03/21 07:18:42;;;;;;;29.88;17.83;;;11.80;99.90;;;;;;4877177;29;20034;-69
2023/03/21 07:21:08;;;;;;;49.50;20.00;;;11.80;99.90;;;;;;4898251;29;20081;-69
2023/03/21 07:23:33;;;;;;;39.70;19.35;;;11.80;99.90;;;;;;4883834;29;20045;-69
2023/03/21 07:26:00;;;;;;;47.03;19.33;;;11.70;99.90;;;;;;4883778;29;20043;-69
2023/03/21 07:28:26;;;;;;;33.15;18.60;;;11.70;99.90;;;;;;4883755;29;20052;-69
2023/03/21 07:30:58;;;;;;;28.73;17.30;;;11.70;99.90;;;;;;4866965;29;20048;-69
2023/03/21 07:33:25;;;;;;;33.55;18.10;;;11.60;99.90;;;;;;4883640;29;20041;-69
2023/03/21 07:35:52;;;;;;;57.35;21.33;;;11.70;99.90;;;;;;4883635;29;20052;-69
2023/03/21 07:38:20;;;;;;;53.58;20.88;;;11.80;99.90;;;;;;4883597;29;20041;-69
2023/03/21 07:40:47;;;;;;;41.65;18.83;;;11.90;99.90;;;;;;4866825;29;20045;-70
2023/03/21 07:43:14;;;;;;;33.90;18.40;;;11.90;99.90;;;;;;4883202;29;20136;-69
2023/03/21 07:45:41;;;;;;;26.50;16.23;;;11.80;99.90;;;;;;4883488;29;20045;-69
2023/03/21 07:48:07;;;;;;;31.55;17.80;;;11.80;99.90;;;;;;4883452;29;20049;-69
2023/03/21 07:50:34;;;;;;;35.28;17.33;;;11.70;99.90;;;;;;4883395;29;20048;-69
2023/03/21 07:53:00;;;;;;;37.40;18.13;;;11.70;99.90;;;;;;4866557;29;20131;-69
2023/03/21 07:55:26;;;;;;;30.85;16.15;;;11.70;99.90;;;;;;4883021;29;20124;-69
2023/03/21 07:57:52;;;;;;;20.02;14.23;;;11.70;99.90;;;;;;4883242;29;20045;-69
2023/03/21 08:00:22;;;;;;;29.80;16.27;;;11.70;99.90;;;;;;4898864;29;20037;-69
2023/03/21 08:02:53;;;;;;;22.48;15.13;;;11.70;99.90;;;;;;4866769;29;20045;-69
2023/03/21 08:05:27;;;;;;;27.30;16.15;;;11.80;99.90;;;;;;4882895;29;20440;-69
2023/03/21 08:07:53;;;;;;;29.98;16.63;;;11.70;99.90;;;;;;4882858;29;20443;-69
2023/03/21 08:10:19;;;;;;;19.60;13.98;;;11.70;99.90;;;;;;4882537;29;20132;-69
2023/03/21 08:12:45;;;;;;;22.52;15.38;;;11.60;99.90;;;;;;4882985;29;20045;-69
2023/03/21 08:15:12;;;;;;;27.35;15.18;;;11.60;99.90;;;;;;4882981;29;20454;-68
2023/03/21 08:17:38;;;;;;;28.48;16.67;;;11.70;99.90;;;;;;4883032;29;20124;-69
2023/03/21 08:20:10;;;;;;;19.00;12.93;;;11.70;99.90;;;;;;4882963;29;20037;-68
2023/03/21 08:22:37;;;;;;;20.60;14.40;;;11.70;99.90;;;;;;4883232;29;20120;-69
2023/03/21 08:25:04;;;;;;;20.10;14.45;;;11.80;99.90;;;;;;4881695;29;20340;-69
2023/03/21 08:27:31;;;;;;;27.85;16.38;;;11.90;99.90;;;;;;4882942;29;20045;-69
2023/03/21 08:29:58;;;;;;;19.25;13.95;;;12.00;99.90;;;;;;4882654;29;20045;-68
2023/03/21 08:32:28;;;;;;;21.35;15.30;;;11.90;99.90;;;;;;4882456;29;20128;-69
2023/03/21 08:35:06;;;;;;;25.25;14.77;;;11.90;99.90;;;;;;4882273;29;20053;-69
2023/03/21 08:37:31;;;;;;;19.65;13.50;;;11.90;99.90;;;;;;4882912;29;20117;-69
2023/03/21 08:39:57;;;;;;;15.95;12.27;;;11.90;99.90;;;;;;4882861;29;20112;-68
2023/03/21 08:42:23;;;;;;;16.92;12.82;;;11.80;99.90;;;;;;4880284;29;20164;-68
2023/03/21 08:44:49;;;;;;;15.50;12.60;;;11.80;99.90;;;;;;4882854;29;20052;-68
2023/03/21 08:47:15;;;;;;;19.88;13.82;;;11.80;99.90;;;;;;4882782;29;20092;-67
2023/03/21 08:49:44;;;;;;;13.27;11.85;;;11.60;99.90;;;;;;4882454;29;20073;-67
2023/03/21 08:52:10;;;;;;;16.35;13.23;;;11.60;99.90;;;;;;4882707;29;20108;-71
2023/03/21 08:54:36;;;;;;;14.25;11.18;;;11.70;99.90;;;;;;4882259;29;20060;-67
2023/03/21 08:57:02;;;;;;;17.20;12.32;;;11.70;99.90;;;;;;4882734;29;20128;-67
2023/03/21 08:59:28;;;;;;;17.88;13.05;;;11.60;99.90;;;;;;4882990;29;20124;-67
2023/03/21 09:01:57;;;;;;;22.85;14.48;;;11.70;99.90;;;;;;4882368;29;20041;-67
2023/03/21 09:04:24;;;;;;;19.27;13.82;;;11.80;99.90;;;;;;4882427;29;20060;-67
2023/03/21 09:06:50;;;;;;;15.75;12.85;;;11.70;99.90;;;;;;4866143;29;20454;-67
2023/03/21 09:09:16;;;;;;;22.35;13.98;;;11.60;99.90;;;;;;4881371;29;20049;-66
2023/03/21 09:11:42;;;;;;;21.90;15.07;;;11.60;99.90;;;;;;4882231;29;20331;-67
2023/03/21 09:14:08;;;;;;;30.90;17.58;;;11.70;99.90;;;;;;4881241;29;20041;-68
2023/03/21 09:16:34;;;;;;;28.25;16.17;;;11.70;99.90;;;;;;4861372;29;20064;-75
2023/03/21 09:19:02;;;;;;;23.95;16.20;;;11.70;99.90;;;;;;4870768;29;20427;-75
2023/03/21 09:21:28;;;;;;;24.23;14.93;;;11.70;99.90;;;;;;4865862;29;20357;-68
2023/03/21 09:23:57;;;;;;;23.27;15.50;;;11.70;99.90;;;;;;4855965;29;20447;-68
2023/03/21 09:26:26;;;;;;;34.75;19.33;;;11.70;99.90;;;;;;4863440;29;20455;-70
2023/03/21 09:28:53;;;;;;;35.20;18.33;;;11.70;99.90;;;;;;4863687;29;20116;-67
2023/03/21 09:31:21;;;;;;;43.80;21.77;;;11.80;99.90;;;;;;4869989;29;20041;-68
2023/03/21 09:33:51;;;;;;;31.75;18.60;;;11.70;99.90;;;;;;4879287;29;20056;-68
2023/03/21 09:36:19;;;;;;;34.13;20.20;;;11.70;99.90;;;;;;4870403;29;20444;-69
2023/03/21 09:38:47;;;;;;;27.00;17.63;;;11.70;99.90;;;;;;4863562;29;20046;-68
2023/03/21 09:41:39;;;;;;;25.42;17.50;;;11.70;99.90;;;;;;4862920;29;20038;-70
2023/03/21 09:44:11;;;;;;;28.38;18.20;;;11.60;99.90;;;;;;4863613;29;20351;-66
2023/03/21 09:47:24;;;;;;;25.02;17.42;;;11.50;99.90;;;;;;4866745;29;20093;-68
2023/03/21 09:50:12;;;;;;;28.67;18.15;;;11.60;99.90;;;;;;4857089;29;20383;-80
2023/03/21 09:52:42;;;;;;;30.55;20.30;;;11.50;99.90;;;;;;4879637;29;20051;-69
2023/03/21 09:55:29;;;;;;;40.75;22.33;;;11.60;99.90;;;;;;4881963;29;20113;-68
2023/03/21 09:58:15;;;;;;;33.92;21.05;;;11.70;99.90;;;;;;4883554;29;20053;-72
2023/03/21 10:00:52;;;;;;;32.47;19.25;;;11.50;99.90;;;;;;4885189;29;20045;-68
2023/03/21 10:03:22;;;;;;;31.35;20.90;;;11.40;99.90;;;;;;4885357;29;20041;-68
2023/03/21 10:05:51;;;;;;;29.88;20.55;;;11.40;99.90;;;;;;4885312;29;20072;-68
2023/03/21 10:08:26;;;;;;;31.10;20.92;;;11.60;99.90;;;;;;4885212;29;20045;-70
2023/03/21 10:10:55;;;;;;;31.88;20.83;;;11.40;99.90;;;;;;4884876;29;20049;-69
2023/03/21 10:13:27;;;;;;;35.15;21.85;;;11.30;99.90;;;;;;4885063;29;20112;-68
2023/03/21 10:15:57;;;;;;;30.55;20.27;;;11.20;99.90;;;;;;4885067;29;20040;-70
2023/03/21 10:18:28;;;;;;;36.33;21.38;;;11.30;99.90;;;;;;4885038;29;20045;-69
2023/03/21 10:20:54;;;;;;;42.92;24.77;;;11.40;99.90;;;;;;4885014;29;20116;-66
2023/03/21 10:23:24;;;;;;;42.00;24.42;;;11.30;99.90;;;;;;4884714;29;20128;-64
2023/03/21 10:25:55;;;;;;;38.92;22.98;;;11.10;99.90;;;;;;4885159;29;20049;-66
2023/03/21 10:28:26;;;;;;;46.25;24.83;;;11.10;99.90;;;;;;4892524;29;20339;-70
2023/03/21 10:30:54;;;;;;;48.08;26.92;;;11.20;99.90;;;;;;4902003;29;20423;-67
2023/03/21 10:33:45;;;;;;;35.17;24.08;;;11.40;99.90;;;;;;4903426;29;20124;-67
2023/03/21 10:36:16;;;;;;;46.30;27.27;;;11.40;99.90;;;;;;4902563;29;20127;-67
2023/03/21 10:38:53;;;;;;;71.53;31.92;;;11.40;99.90;;;;;;4903406;29;20323;-67
2023/03/21 10:41:20;;;;;;;49.30;27.80;;;11.50;99.90;;;;;;4903248;29;20041;-67
2023/03/21 10:44:02;;;;;;;38.75;25.58;;;11.60;99.90;;;;;;4883281;29;20140;-68
2023/03/21 10:46:28;;;;;;;40.83;24.52;;;11.80;99.90;;;;;;4884636;29;20056;-67
2023/03/21 10:48:54;;;;;;;42.65;26.52;;;11.80;99.90;;;;;;4884528;29;20041;-71
2023/03/21 10:51:24;;;;;;;42.20;25.73;;;11.70;99.90;;;;;;4884573;29;20045;-68
2023/03/21 10:53:55;;;;;;;45.33;26.45;;;11.80;99.90;;;;;;4884117;29;20461;-68
2023/03/21 10:56:27;;;;;;;42.28;24.80;;;11.90;99.90;;;;;;4883656;29;20089;-68
2023/03/21 10:58:57;;;;;;;37.72;24.15;;;11.90;99.90;;;;;;4884363;29;20362;-69
2023/03/21 11:01:37;;;;;;;33.83;22.98;;;12.00;99.90;;;;;;4884065;29;20072;-69
2023/03/21 11:04:15;;;;;;;31.50;19.55;;;12.00;99.90;;;;;;4883979;29;20475;-69
2023/03/21 11:06:51;;;;;;;35.08;19.77;;;12.00;99.90;;;;;;4884243;29;20041;-69
2023/03/21 11:09:20;;;;;;;31.83;18.63;;;12.00;99.90;;;;;;4884509;29;20080;-68
2023/03/21 11:12:04;;;;;;;34.47;18.17;;;11.80;99.90;;;;;;4883727;29;20041;-69
2023/03/21 11:14:47;;;;;;;24.75;15.93;;;11.80;99.90;;;;;;4883680;29;20440;-69
2023/03/21 11:17:16;;;;;;;33.22;18.38;;;11.70;99.90;;;;;;4884207;29;20096;-68
2023/03/21 11:19:48;;;;;;;34.92;16.77;;;11.80;99.90;;;;;;4883674;29;20040;-68
2023/03/21 11:22:14;;;;;;;33.25;17.95;;;12.00;99.90;;;;;;4884275;29;20037;-68
2023/03/21 11:24:46;;;;;;;29.25;16.48;;;12.20;99.90;;;;;;4883885;29;20048;-69
2023/03/21 11:27:12;;;;;;;26.90;15.45;;;12.30;99.90;;;;;;4883647;29;20037;-69
2023/03/21 11:29:44;;;;;;;31.20;17.48;;;12.40;99.90;;;;;;4883811;29;20041;-69
2023/03/21 11:32:11;;;;;;;27.73;15.25;;;12.50;99.90;;;;;;4883806;29;20072;-69
2023/03/21 11:34:47;;;;;;;24.20;15.25;;;12.50;99.90;;;;;;4883739;29;20056;-69
2023/03/21 11:37:31;;;;;;;25.40;14.30;;;12.20;99.90;;;;;;4883671;29;20037;-68
2023/03/21 11:40:12;;;;;;;25.13;13.32;;;12.30;99.90;;;;;;4883716;29;20033;-70
2023/03/21 11:42:50;;;;;;;26.85;13.65;;;12.40;99.90;;;;;;4886343;29;20108;-68
2023/03/21 11:45:26;;;;;;;20.85;12.73;;;12.50;99.90;;;;;;4902243;29;20040;-68
2023/03/21 11:47:53;;;;;;;;;;;12.50;99.90;;;;;;4902680;29;20124;-68
2023/03/21 11:50:36;;;;;;;22.63;13.35;;;12.40;99.90;;;;;;4902032;29;19920;-69
2023/03/21 11:53:07;;;;;;;24.95;13.13;;;12.30;99.90;;;;;;4901996;29;20327;-68
2023/03/21 11:56:20;;;;;;;23.60;13.48;;;12.00;99.90;;;;;;4901753;29;20449;-70
2023/03/21 11:59:14;;;;;;;25.77;13.57;;;12.30;99.90;;;;;;4901609;29;20052;-68
2023/03/21 12:01:43;;;;;;;24.67;13.40;;;12.40;99.90;;;;;;4901990;29;20166;-68
2023/03/21 12:04:39;;;;;;;24.13;12.80;;;12.40;99.90;;;;;;4901902;29;20127;-67
2023/03/21 12:07:22;;;;;;;19.00;12.38;;;12.50;99.90;;;;;;4901765;29;20044;-68
2023/03/21 12:10:08;;;;;;;24.33;13.23;;;12.50;99.90;;;;;;4901843;29;20075;-68
2023/03/21 12:13:02;;;;;;;19.52;12.32;;;12.60;99.90;;;;;;4901480;29;20044;-67
2023/03/21 12:15:39;;;;;;;21.45;12.63;;;12.80;99.90;;;;;;4901572;29;20113;-67
2023/03/21 12:18:19;;;;;;;19.02;12.32;;;12.80;99.90;;;;;;4901904;29;20429;-67
2023/03/21 12:21:19;;;;;;;17.52;11.02;;;13.00;99.90;;;;;;4901704;29;20376;-68
2023/03/21 12:24:02;;;;;;;19.40;11.45;;;12.70;99.90;;;;;;4901397;29;20313;-67
2023/03/21 12:26:44;;;;;;;24.05;12.25;;;12.50;99.90;;;;;;4901462;29;20462;-67
2023/03/21 12:29:44;;;;;;;22.70;12.30;;;12.80;99.90;;;;;;4901372;29;20446;-67
2023/03/21 12:32:48;;;;;;;19.33;11.23;;;12.80;99.90;;;;;;4896255;29;20053;-67
2023/03/21 12:36:02;;;;;;;20.98;11.07;;;12.90;99.90;;;;;;4881002;29;20052;-68
2023/03/21 12:38:59;;;;;;;21.25;11.05;;;12.90;99.90;;;;;;4862495;29;20049;-68
2023/03/21 12:41:32;;;;;;;19.17;10.23;;;12.70;99.90;;;;;;4880946;29;20400;-68
2023/03/21 12:44:07;;;;;;;17.27;9.68;;;12.50;99.90;;;;;;4882227;29;20096;-68
2023/03/21 12:46:52;;;;;;;18.83;10.25;;;12.50;99.90;;;;;;4882623;29;20049;-68